Terminal Aerodrome Forecast
Issued by NWS Twin Cities, MN

Home | Current Version | Previous Version | Text Only | Print | Product List | Glossary On
Versions: 1 2 3 4 5 6 7 8 9 10 11 12 13 14 15 16 17
000
FTUS43 KMPX 260704 AAA
TAFEAU
TAF AMD
KEAU 260704Z 2607/2706 07007KT 6SM -RA BR OVC008
     FM260900 03007KT 3SM -RADZ BR SCT003 OVC005
     FM262000 02005KT 6SM BR OVC006=

USA.gov is the U.S. government's official web portal to all federal, state and local government web resources and services.